createdAt,value
2023-01-10T00:02:41.804Z,30.88
2023-01-10T00:07:43.505Z,32.97
2023-01-10T00:13:03.523Z,27.40
2023-01-10T00:18:05.374Z,31.70
2023-01-10T00:23:06.848Z,23.30
2023-01-10T00:28:20.812Z,22.58
2023-01-10T00:33:22.793Z,21.20
2023-01-10T00:38:24.567Z,26.52
2023-01-10T00:43:44.519Z,19.10
2023-01-10T00:48:45.973Z,20.13
2023-01-10T00:53:47.503Z,25.13
2023-01-10T00:58:49.194Z,29.88
2023-01-10T01:03:50.621Z,18.95
2023-01-10T01:08:52.138Z,28.47
2023-01-10T01:13:53.674Z,30.10
2023-01-10T01:18:55.187Z,22.77
2023-01-10T01:23:57.179Z,32.50
2023-01-10T01:28:58.605Z,27.80
2023-01-10T01:34:00.104Z,25.60
2023-01-10T01:39:01.634Z,31.47
2023-01-10T01:44:13.965Z,23.43
2023-01-10T01:49:21.987Z,30.33
2023-01-10T01:54:23.598Z,31.17
2023-01-10T01:59:31.751Z,35.83
2023-01-10T02:04:41.208Z,28.83
2023-01-10T02:09:51.470Z,18.45
2023-01-10T02:14:54.273Z,27.80
2023-01-10T02:20:03.157Z,24.92
2023-01-10T02:25:26.427Z,23.15
2023-01-10T02:30:33.689Z,23.47
2023-01-10T02:35:56.715Z,21.55
2023-01-10T02:41:25.470Z,19.55
2023-01-10T02:46:30.192Z,13.77
2023-01-10T02:51:33.596Z,12.82
2023-01-10T02:57:08.854Z,9.95
2023-01-10T03:02:47.579Z,15.55
2023-01-10T03:08:22.909Z,17.67
2023-01-10T03:13:53.528Z,19.95
2023-01-10T03:19:06.345Z,20.20
2023-01-10T03:24:15.529Z,18.80
2023-01-10T03:29:32.124Z,22.40
2023-01-10T03:34:34.698Z,27.52
2023-01-10T03:39:42.228Z,21.65
2023-01-10T03:44:58.291Z,23.17
2023-01-10T03:50:06.570Z,29.17
2023-01-10T03:55:12.329Z,24.30
2023-01-10T04:00:16.508Z,24.70
2023-01-10T04:05:18.030Z,26.38
2023-01-10T04:10:21.107Z,22.85
2023-01-10T04:15:22.593Z,19.57
2023-01-10T04:20:27.232Z,23.50
2023-01-10T04:30:30.150Z,25.20
2023-01-10T04:35:31.638Z,26.43
2023-01-10T04:40:33.120Z,23.60
2023-01-10T04:45:34.668Z,23.90
2023-01-10T04:50:36.200Z,20.97
2023-01-10T04:55:37.664Z,24.38
2023-01-10T05:00:39.404Z,20.17
2023-01-10T05:05:40.837Z,16.97
2023-01-10T05:10:42.363Z,18.80
2023-01-10T05:15:43.889Z,23.13
2023-01-10T05:20:45.403Z,25.42
2023-01-10T05:25:46.870Z,19.83
2023-01-10T05:30:49.084Z,17.60
2023-01-10T05:35:50.583Z,18.50
2023-01-10T05:40:56.362Z,20.17
2023-01-10T05:45:57.920Z,23.53
2023-01-10T05:50:59.454Z,19.52
2023-01-10T05:56:02.342Z,20.70
2023-01-10T06:01:04.023Z,19.57
2023-01-10T06:06:05.816Z,22.27
2023-01-10T06:11:07.710Z,18.02
2023-01-10T06:16:09.608Z,24.13
2023-01-10T06:21:11.103Z,27.50
2023-01-10T06:26:12.827Z,32.13
2023-01-10T06:31:14.963Z,29.80
2023-01-10T06:36:16.681Z,27.92
2023-01-10T06:41:18.157Z,31.13
2023-01-10T06:46:20.146Z,30.33
2023-01-10T06:51:21.710Z,22.25
2023-01-10T06:56:23.261Z,27.00
2023-01-10T07:01:24.772Z,26.10
2023-01-10T07:06:26.278Z,28.53
2023-01-10T07:11:27.746Z,24.00
2023-01-10T07:16:29.415Z,20.07
2023-01-10T07:21:30.936Z,25.23
2023-01-10T07:26:32.376Z,19.37
2023-01-10T07:31:33.952Z,18.57
2023-01-10T07:36:39.206Z,25.20
2023-01-10T07:41:40.955Z,14.83
2023-01-10T07:46:43.085Z,22.50
2023-01-10T07:51:44.539Z,29.03
2023-01-10T07:56:47.288Z,15.37
2023-01-10T08:01:48.836Z,24.57
2023-01-10T08:06:51.064Z,20.53
2023-01-10T08:11:52.556Z,18.57
2023-01-10T08:16:54.143Z,21.57
2023-01-10T08:21:55.573Z,21.30
2023-01-10T08:27:00.376Z,17.90
2023-01-10T08:32:02.113Z,17.63
2023-01-10T08:37:04.256Z,20.67
2023-01-10T08:42:05.967Z,15.53
2023-01-10T08:47:07.429Z,21.47
2023-01-10T08:52:08.894Z,15.37
2023-01-10T08:57:10.427Z,23.90
2023-01-10T09:02:15.058Z,16.10
2023-01-10T09:12:36.389Z,16.10
2023-01-10T09:17:37.926Z,15.48
2023-01-10T09:22:39.834Z,18.10
2023-01-10T09:27:41.482Z,16.43
2023-01-10T09:32:42.957Z,18.63
2023-01-10T09:37:44.438Z,19.67
2023-01-10T09:43:19.061Z,16.60
2023-01-10T09:48:46.040Z,26.10
2023-01-10T09:53:50.596Z,15.75
2023-01-10T09:58:52.786Z,20.73
2023-01-10T10:04:42.255Z,17.25
2023-01-10T10:09:43.775Z,30.65
2023-01-10T10:15:19.600Z,20.08
2023-01-10T10:20:33.256Z,14.45
2023-01-10T10:25:56.823Z,16.40
2023-01-10T10:31:14.995Z,18.80
2023-01-10T10:36:23.834Z,15.00
2023-01-10T10:41:46.218Z,18.45
2023-01-10T10:46:47.883Z,19.25
2023-01-10T10:51:53.797Z,21.38
2023-01-10T10:56:56.234Z,16.80
2023-01-10T11:01:58.153Z,14.88
2023-01-10T11:07:00.828Z,18.65
2023-01-10T11:12:03.970Z,15.65
2023-01-10T11:17:25.662Z,13.63
2023-01-10T11:22:30.428Z,12.60
2023-01-10T11:27:37.556Z,16.63
2023-01-10T11:32:48.210Z,15.23
2023-01-10T11:38:15.603Z,20.45
2023-01-10T11:43:38.436Z,20.38
2023-01-10T11:49:05.143Z,13.00
2023-01-10T11:54:13.004Z,14.45
2023-01-10T11:59:17.919Z,19.02
2023-01-10T12:04:21.213Z,22.50
2023-01-10T12:09:35.083Z,15.77
2023-01-10T12:14:36.577Z,18.15
2023-01-10T12:19:38.047Z,16.60
2023-01-10T12:24:44.115Z,19.48
2023-01-10T12:30:17.602Z,15.02
2023-01-10T12:35:27.740Z,17.48
2023-01-10T12:40:45.145Z,14.38
2023-01-10T12:46:01.142Z,19.80
2023-01-10T12:51:15.168Z,20.75
2023-01-10T12:56:19.191Z,25.83
2023-01-10T13:01:35.167Z,20.83
2023-01-10T13:06:39.780Z,18.08
2023-01-10T13:16:56.123Z,17.65
2023-01-10T13:22:21.108Z,22.88
2023-01-10T13:27:25.299Z,20.40
2023-01-10T13:32:33.471Z,25.42
2023-01-10T13:37:41.268Z,22.75
2023-01-10T13:43:01.570Z,25.48
2023-01-10T13:48:04.612Z,16.20
2023-01-10T13:53:09.201Z,20.50
2023-01-10T14:03:50.288Z,22.08
2023-01-10T14:08:54.845Z,27.77
2023-01-10T14:14:00.594Z,25.17
2023-01-10T14:19:05.657Z,20.73
2023-01-10T14:24:23.439Z,22.88
2023-01-10T14:29:31.876Z,25.40
2023-01-10T14:34:37.324Z,26.08
2023-01-10T14:39:42.175Z,23.35
2023-01-10T14:44:51.072Z,23.27
2023-01-10T14:49:52.574Z,20.00
2023-01-10T14:55:24.592Z,19.38
2023-01-10T15:00:36.493Z,26.85
2023-01-10T15:05:46.156Z,18.77
2023-01-10T15:10:52.137Z,16.73
2023-01-10T15:15:54.547Z,16.58
2023-01-10T15:20:57.993Z,19.42
2023-01-10T15:26:03.007Z,19.67
2023-01-10T15:31:05.883Z,23.90
2023-01-10T15:36:14.192Z,21.23
2023-01-10T15:41:19.569Z,22.73
2023-01-10T15:46:28.128Z,19.48
2023-01-10T15:51:37.666Z,24.48
2023-01-10T15:57:06.560Z,24.05
2023-01-10T16:02:29.768Z,15.88
2023-01-10T16:07:34.373Z,32.27
2023-01-10T16:12:59.283Z,15.32
2023-01-10T16:18:01.128Z,23.38
2023-01-10T16:23:05.053Z,25.42
2023-01-10T16:28:06.516Z,23.30
2023-01-10T16:33:16.093Z,23.73
2023-01-10T16:38:18.828Z,23.33
2023-01-10T16:43:25.783Z,22.17
2023-01-10T16:48:29.283Z,25.98
2023-01-10T16:53:30.847Z,26.38
2023-01-10T16:58:32.378Z,20.58
2023-01-10T17:03:37.556Z,27.88
2023-01-10T17:08:39.129Z,24.38
2023-01-10T17:13:43.325Z,26.13
2023-01-10T17:18:44.863Z,31.98
2023-01-10T17:23:47.086Z,27.00
2023-01-10T17:28:49.682Z,28.92
2023-01-10T17:33:51.351Z,20.52
2023-01-10T17:38:52.845Z,29.42
2023-01-10T17:43:54.392Z,25.02
2023-01-10T17:48:55.910Z,24.27
2023-01-10T17:53:58.891Z,26.23
2023-01-10T17:59:00.293Z,28.55
2023-01-10T18:04:01.814Z,24.65
2023-01-10T18:09:04.300Z,32.25
2023-01-10T18:14:41.018Z,35.00
2023-01-10T18:19:42.567Z,32.95
2023-01-10T18:24:45.257Z,27.98
2023-01-10T18:29:46.963Z,25.00
2023-01-10T18:34:48.796Z,33.63
2023-01-10T18:39:50.348Z,21.67
2023-01-10T18:44:51.831Z,28.02
2023-01-10T18:49:53.379Z,32.33
2023-01-10T18:54:55.023Z,28.52
2023-01-10T18:59:56.459Z,28.30
2023-01-10T19:04:57.934Z,28.20
2023-01-10T19:09:59.462Z,26.95
2023-01-10T19:15:01.084Z,28.38
2023-01-10T19:20:02.794Z,32.95
2023-01-10T19:25:04.843Z,24.85
2023-01-10T19:30:07.128Z,25.08
2023-01-10T19:35:09.043Z,31.77
2023-01-10T19:40:12.246Z,24.13
2023-01-10T19:45:13.811Z,24.25
2023-01-10T19:50:15.613Z,20.80
2023-01-10T19:55:17.045Z,17.17
2023-01-10T20:00:18.861Z,20.60
2023-01-10T20:05:20.385Z,22.75
2023-01-10T20:10:21.974Z,24.40
2023-01-10T20:15:23.851Z,22.85
2023-01-10T20:20:25.416Z,16.42
2023-01-10T20:25:26.996Z,16.42
2023-01-10T20:30:28.498Z,23.45
2023-01-10T20:35:30.123Z,10.98
2023-01-10T20:40:31.627Z,18.83
2023-01-10T20:45:34.384Z,21.00
2023-01-10T20:50:35.826Z,18.48
2023-01-10T20:55:41.439Z,14.50
2023-01-10T21:00:42.950Z,14.25
2023-01-10T21:05:52.083Z,16.87
2023-01-10T21:10:53.530Z,12.88
2023-01-10T21:15:56.895Z,12.77
2023-01-10T21:20:59.940Z,13.52
2023-01-10T21:26:04.582Z,15.23
2023-01-10T21:36:08.556Z,12.37
2023-01-10T21:41:14.735Z,11.63
2023-01-10T21:46:16.429Z,11.88
2023-01-10T21:51:17.854Z,10.57
2023-01-10T21:56:19.300Z,11.77
2023-01-10T22:01:20.768Z,12.60
2023-01-10T22:06:22.426Z,14.75
2023-01-10T22:11:24.027Z,9.17
2023-01-10T22:16:25.499Z,12.07
2023-01-10T22:21:27.024Z,12.63
2023-01-10T22:26:28.498Z,12.23
2023-01-10T22:31:30.117Z,11.70
2023-01-10T22:36:31.592Z,11.93
2023-01-10T22:41:33.807Z,10.87
2023-01-10T22:46:35.263Z,8.77
2023-01-10T22:51:37.533Z,8.43
2023-01-10T22:56:39.487Z,10.67
2023-01-10T23:01:41.911Z,6.88
2023-01-10T23:06:43.601Z,9.47
2023-01-10T23:11:45.041Z,5.53
2023-01-10T23:16:46.588Z,5.77
2023-01-10T23:21:48.131Z,9.32
2023-01-10T23:26:50.585Z,7.07
2023-01-10T23:31:52.034Z,6.80
2023-01-10T23:36:53.502Z,5.83
2023-01-10T23:41:55.010Z,7.37
2023-01-10T23:46:56.431Z,8.27
2023-01-10T23:51:57.850Z,8.57
2023-01-10T23:56:59.933Z,5.50
